createdAt,value
2023-04-16T00:01:43.291Z,4.20
2023-04-16T00:04:11.386Z,4.37
2023-04-16T00:06:39.479Z,4.23
2023-04-16T00:09:07.584Z,4.47
2023-04-16T00:11:35.786Z,4.47
2023-04-16T00:14:03.772Z,4.33
2023-04-16T00:16:31.795Z,3.90
2023-04-16T00:19:01.048Z,4.00
2023-04-16T00:21:28.909Z,4.13
2023-04-16T00:23:56.897Z,3.80
2023-04-16T00:26:24.815Z,4.40
2023-04-16T00:28:52.691Z,4.30
2023-04-16T00:31:27.866Z,4.17
2023-04-16T00:33:55.893Z,4.73
2023-04-16T00:36:27.057Z,4.80
2023-04-16T00:38:55.574Z,4.13
2023-04-16T00:41:23.961Z,4.23
2023-04-16T00:43:51.920Z,5.07
2023-04-16T00:46:21.240Z,4.67
2023-04-16T00:48:50.043Z,4.50
2023-04-16T00:51:20.086Z,4.37
2023-04-16T00:53:49.631Z,4.67
2023-04-16T00:56:17.875Z,4.87
2023-04-16T00:58:46.180Z,4.27
2023-04-16T01:01:15.003Z,4.50
2023-04-16T01:03:45.653Z,4.43
2023-04-16T01:06:14.064Z,4.67
2023-04-16T01:08:41.967Z,4.20
2023-04-16T01:11:12.063Z,4.57
2023-04-16T01:13:40.121Z,4.83
2023-04-16T01:16:08.765Z,5.03
2023-04-16T01:18:37.954Z,5.20
2023-04-16T01:21:07.588Z,5.53
2023-04-16T01:23:35.942Z,5.73
2023-04-16T01:26:03.833Z,6.00
2023-04-16T01:28:31.736Z,5.73
2023-04-16T01:30:59.729Z,5.77
2023-04-16T01:33:27.612Z,4.70
2023-04-16T01:35:55.612Z,5.60
2023-04-16T01:38:25.203Z,5.40
2023-04-16T01:40:57.491Z,4.50
2023-04-16T01:43:25.582Z,5.13
2023-04-16T01:45:54.993Z,4.97
2023-04-16T01:48:22.886Z,5.10
2023-04-16T01:50:50.833Z,4.53
2023-04-16T01:53:18.681Z,5.27
2023-04-16T01:55:47.874Z,5.90
2023-04-16T01:58:15.899Z,5.23
2023-04-16T02:00:43.747Z,5.30
2023-04-16T02:03:11.705Z,4.83
2023-04-16T02:05:39.721Z,5.13
2023-04-16T02:08:07.772Z,5.20
2023-04-16T02:10:35.648Z,5.33
2023-04-16T02:13:04.947Z,4.87
2023-04-16T02:15:32.898Z,5.37
2023-04-16T02:18:00.789Z,6.03
2023-04-16T02:20:29.097Z,5.13
2023-04-16T02:22:57.006Z,4.87
2023-04-16T02:25:25.171Z,5.63
2023-04-16T02:27:53.104Z,4.60
2023-04-16T02:30:22.678Z,5.13
2023-04-16T02:32:50.672Z,5.27
2023-04-16T02:35:18.537Z,6.07
2023-04-16T02:37:46.402Z,5.73
2023-04-16T02:40:14.306Z,5.90
2023-04-16T02:42:42.200Z,5.93
2023-04-16T02:45:11.613Z,5.60
2023-04-16T02:47:40.974Z,5.80
2023-04-16T02:50:09.667Z,5.13
2023-04-16T02:52:37.533Z,6.33
2023-04-16T02:55:05.996Z,5.67
2023-04-16T02:57:33.841Z,5.87
2023-04-16T03:00:02.049Z,6.40
2023-04-16T03:02:29.924Z,5.77
2023-04-16T03:04:59.134Z,5.50
2023-04-16T03:07:27.024Z,6.33
2023-04-16T03:09:54.960Z,7.03
2023-04-16T03:12:22.827Z,6.50
2023-04-16T03:14:52.423Z,6.10
2023-04-16T03:17:20.482Z,6.53
2023-04-16T03:19:48.377Z,6.33
2023-04-16T03:22:17.547Z,5.97
2023-04-16T03:24:45.396Z,6.80
2023-04-16T03:27:13.350Z,6.43
2023-04-16T03:29:41.313Z,7.10
2023-04-16T03:32:09.183Z,6.47
2023-04-16T03:34:37.783Z,6.37
2023-04-16T03:37:06.103Z,7.00
2023-04-16T03:39:35.624Z,7.20
2023-04-16T03:42:03.546Z,7.03
2023-04-16T03:44:31.512Z,7.30
2023-04-16T03:46:59.437Z,7.47
2023-04-16T03:49:27.406Z,7.23
2023-04-16T03:51:55.476Z,6.80
2023-04-16T03:54:23.420Z,7.10
2023-04-16T03:56:52.981Z,7.63
2023-04-16T03:59:20.906Z,6.70
2023-04-16T04:01:48.986Z,7.20
2023-04-16T04:04:17.152Z,7.50
2023-04-16T04:06:46.526Z,8.00
2023-04-16T04:09:15.069Z,8.07
2023-04-16T04:11:43.386Z,8.23
2023-04-16T04:14:12.592Z,7.47
2023-04-16T04:16:40.599Z,8.97
2023-04-16T04:19:08.945Z,8.70
2023-04-16T04:21:37.111Z,8.53
2023-04-16T04:24:05.450Z,9.20
2023-04-16T04:26:33.444Z,8.67
2023-04-16T04:29:01.322Z,10.07
2023-04-16T04:31:31.014Z,9.40
2023-04-16T04:33:59.049Z,10.20
2023-04-16T04:36:27.407Z,10.27
2023-04-16T04:38:55.405Z,10.27
2023-04-16T04:41:23.347Z,10.37
2023-04-16T04:43:51.475Z,10.33
2023-04-16T04:46:19.483Z,9.13
2023-04-16T04:48:48.797Z,9.97
2023-04-16T04:51:16.625Z,9.97
2023-04-16T04:53:44.541Z,10.50
2023-04-16T04:56:13.199Z,11.47
2023-04-16T04:58:41.687Z,10.70
2023-04-16T05:01:09.782Z,11.47
2023-04-16T05:03:37.820Z,10.90
2023-04-16T05:06:08.471Z,12.07
2023-04-16T05:08:36.636Z,11.60
2023-04-16T05:11:04.683Z,11.63
2023-04-16T05:13:32.566Z,11.97
2023-04-16T05:16:01.084Z,13.30
2023-04-16T05:18:28.991Z,13.50
2023-04-16T05:20:56.932Z,12.23
2023-04-16T05:23:26.165Z,12.63
2023-04-16T05:25:54.098Z,12.17
2023-04-16T05:28:21.953Z,11.80
2023-04-16T05:30:50.032Z,11.90
2023-04-16T05:33:18.039Z,11.33
2023-04-16T05:35:46.172Z,11.67
2023-04-16T05:38:14.040Z,10.50
2023-04-16T05:40:43.232Z,10.77
2023-04-16T05:43:11.197Z,10.80
2023-04-16T05:45:41.300Z,10.50
2023-04-16T05:48:10.095Z,9.73
2023-04-16T05:50:38.804Z,10.37
2023-04-16T05:53:08.228Z,9.13
2023-04-16T05:55:37.002Z,10.57
2023-04-16T05:58:06.391Z,9.87
2023-04-16T06:00:34.561Z,10.00
2023-04-16T06:03:03.786Z,9.57
2023-04-16T06:05:32.456Z,9.77
2023-04-16T06:08:00.592Z,9.53
2023-04-16T06:10:28.815Z,9.13
2023-04-16T06:12:56.791Z,9.80
2023-04-16T06:15:26.080Z,9.33
2023-04-16T06:17:55.450Z,9.17
2023-04-16T06:20:23.561Z,8.40
2023-04-16T06:22:51.558Z,9.57
2023-04-16T06:25:19.514Z,8.40
2023-04-16T06:27:47.438Z,8.50
2023-04-16T06:30:16.767Z,9.33
2023-04-16T06:32:46.575Z,8.90
2023-04-16T06:35:14.633Z,9.83
2023-04-16T06:37:42.586Z,9.10
2023-04-16T06:40:11.338Z,9.47
2023-04-16T06:42:39.288Z,8.57
2023-04-16T06:45:08.765Z,9.27
2023-04-16T06:47:36.839Z,8.13
2023-04-16T06:50:07.144Z,8.17
2023-04-16T06:52:35.159Z,7.77
2023-04-16T06:55:03.166Z,8.17
2023-04-16T06:57:31.087Z,7.73
2023-04-16T06:59:59.079Z,8.13
2023-04-16T07:02:27.141Z,7.80
2023-04-16T07:04:55.094Z,8.63
2023-04-16T07:07:24.373Z,8.50
2023-04-16T07:09:52.581Z,9.13
2023-04-16T07:12:22.700Z,7.47
2023-04-16T07:14:51.027Z,7.50
2023-04-16T07:17:18.975Z,7.13
2023-04-16T07:19:47.368Z,6.47
2023-04-16T07:22:15.761Z,6.90
2023-04-16T07:24:45.178Z,6.53
2023-04-16T07:27:13.140Z,6.77
2023-04-16T07:29:41.128Z,6.67
2023-04-16T07:32:09.431Z,7.60
2023-04-16T07:34:37.333Z,7.37
2023-04-16T07:37:05.219Z,7.00
2023-04-16T07:39:33.091Z,6.33
2023-04-16T07:42:02.369Z,7.73
2023-04-16T07:44:31.080Z,7.57
2023-04-16T07:46:59.048Z,8.50
2023-04-16T07:49:26.977Z,8.83
2023-04-16T07:51:54.825Z,9.63
2023-04-16T07:54:23.040Z,8.93
2023-04-16T07:56:51.030Z,10.43
2023-04-16T07:59:23.601Z,10.53
2023-04-16T08:01:54.445Z,11.80
2023-04-16T08:04:25.018Z,10.83
2023-04-16T08:06:53.860Z,12.13
2023-04-16T08:09:21.851Z,12.13
2023-04-16T08:11:50.744Z,12.97
2023-04-16T08:14:20.034Z,12.57
2023-04-16T08:16:47.948Z,12.57
2023-04-16T08:19:15.838Z,13.03
2023-04-16T08:21:43.806Z,13.50
2023-04-16T08:24:11.865Z,13.60
2023-04-16T08:26:39.794Z,13.60
2023-04-16T08:29:07.828Z,13.47
2023-04-16T08:31:37.381Z,13.37
2023-04-16T08:34:05.332Z,14.63
2023-04-16T08:36:33.231Z,15.37
2023-04-16T08:39:01.122Z,15.83
2023-04-16T08:41:30.683Z,16.27
2023-04-16T08:44:01.702Z,16.70
2023-04-16T08:46:30.937Z,14.57
2023-04-16T08:49:01.590Z,15.77
2023-04-16T08:51:35.015Z,14.23
2023-04-16T08:54:05.644Z,14.83
2023-04-16T08:56:37.797Z,14.90
2023-04-16T08:59:06.297Z,14.03
2023-04-16T09:01:34.456Z,13.47
2023-04-16T09:04:04.568Z,13.67
2023-04-16T09:06:34.061Z,13.53
2023-04-16T09:09:04.581Z,14.30
2023-04-16T09:11:32.611Z,14.40
2023-04-16T09:14:01.633Z,13.27
2023-04-16T09:16:33.327Z,13.97
2023-04-16T09:19:02.750Z,13.90
2023-04-16T09:21:30.972Z,13.57
2023-04-16T09:23:59.336Z,13.03
2023-04-16T09:26:28.471Z,12.83
2023-04-16T09:28:56.534Z,13.67
2023-04-16T09:31:24.531Z,12.80
2023-04-16T09:34:07.702Z,13.97
2023-04-16T09:36:36.542Z,13.20
2023-04-16T09:39:05.235Z,13.47
2023-04-16T09:41:35.959Z,13.27
2023-04-16T09:44:05.676Z,14.03
2023-04-16T09:46:36.782Z,14.70
2023-04-16T09:49:10.961Z,13.43
2023-04-16T09:51:39.696Z,15.67
2023-04-16T09:54:07.767Z,15.30
2023-04-16T09:56:41.359Z,17.30
2023-04-16T09:59:10.572Z,15.60
2023-04-16T10:01:38.856Z,15.53
2023-04-16T10:04:08.751Z,15.57
2023-04-16T10:06:36.669Z,16.00
2023-04-16T10:09:08.586Z,15.63
2023-04-16T10:11:36.728Z,15.40
2023-04-16T10:14:04.723Z,14.57
2023-04-16T10:16:33.508Z,16.23
2023-04-16T10:19:01.524Z,14.60
2023-04-16T10:21:34.121Z,14.67
2023-04-16T10:24:02.672Z,14.77
2023-04-16T10:26:31.216Z,14.43
2023-04-16T10:29:00.028Z,13.10
2023-04-16T10:31:29.537Z,14.13
2023-04-16T10:33:58.820Z,12.70
2023-04-16T10:36:27.747Z,13.47
2023-04-16T10:38:59.921Z,13.13
2023-04-16T10:41:28.508Z,13.83
2023-04-16T10:44:09.343Z,13.27
2023-04-16T10:46:39.677Z,13.67
2023-04-16T10:49:15.043Z,13.57
2023-04-16T10:51:43.388Z,13.53
2023-04-16T10:54:27.261Z,13.20
2023-04-16T10:56:58.228Z,12.97
2023-04-16T10:59:30.960Z,12.67
2023-04-16T11:02:01.517Z,13.83
2023-04-16T11:04:34.231Z,13.33
2023-04-16T11:07:04.150Z,14.00
2023-04-16T11:09:47.989Z,13.80
2023-04-16T11:12:18.509Z,14.07
2023-04-16T11:14:49.331Z,13.30
2023-04-16T11:17:17.682Z,12.70
2023-04-16T11:19:45.980Z,13.67
2023-04-16T11:22:17.012Z,11.73
2023-04-16T11:24:47.213Z,12.80
2023-04-16T11:27:15.972Z,12.07
2023-04-16T11:29:46.928Z,11.80
2023-04-16T11:32:22.316Z,12.50
2023-04-16T11:34:50.587Z,12.93
2023-04-16T11:37:21.842Z,13.77
2023-04-16T11:39:52.261Z,14.27
2023-04-16T11:42:22.700Z,14.60
2023-04-16T11:44:55.237Z,14.10
2023-04-16T11:47:24.152Z,13.53
2023-04-16T11:49:52.681Z,13.17
2023-04-16T11:52:28.298Z,13.17
2023-04-16T11:54:57.978Z,13.57
2023-04-16T11:57:27.618Z,13.40
2023-04-16T12:00:01.378Z,14.73
2023-04-16T12:02:39.154Z,13.67
2023-04-16T12:05:26.460Z,13.87
2023-04-16T12:07:54.375Z,13.70
2023-04-16T12:10:23.779Z,14.07
2023-04-16T12:12:51.826Z,14.20
2023-04-16T12:15:19.846Z,14.50
2023-04-16T12:17:48.089Z,14.07
2023-04-16T12:20:16.844Z,13.73
2023-04-16T12:22:47.456Z,13.43
2023-04-16T12:25:17.794Z,13.77
2023-04-16T12:27:51.430Z,13.77
2023-04-16T12:30:22.931Z,13.67
2023-04-16T12:32:53.059Z,13.60
2023-04-16T12:35:31.346Z,13.93
2023-04-16T12:37:59.331Z,13.70
2023-04-16T12:40:27.471Z,13.60
2023-04-16T12:42:56.845Z,14.77
2023-04-16T12:45:25.616Z,13.47
2023-04-16T12:47:53.593Z,13.77
2023-04-16T12:50:21.509Z,14.33
2023-04-16T12:52:49.962Z,14.10
2023-04-16T12:55:17.977Z,13.67
2023-04-16T12:57:45.944Z,13.00
2023-04-16T13:00:17.200Z,11.50
2023-04-16T13:02:45.297Z,12.37
2023-04-16T13:05:14.454Z,11.03
2023-04-16T13:07:42.729Z,10.77
2023-04-16T13:10:11.296Z,10.97
2023-04-16T13:12:39.260Z,11.20
2023-04-16T13:15:08.213Z,10.87
2023-04-16T13:17:37.545Z,10.50
2023-04-16T13:20:06.274Z,10.37
2023-04-16T13:22:34.754Z,10.53
2023-04-16T13:25:02.628Z,10.33
2023-04-16T13:27:32.044Z,8.90
2023-04-16T13:29:59.952Z,9.67
2023-04-16T13:32:28.018Z,9.40
2023-04-16T13:34:57.193Z,9.60
2023-04-16T13:37:25.275Z,9.17
2023-04-16T13:39:53.199Z,10.00
2023-04-16T13:42:22.038Z,8.40
2023-04-16T13:44:53.125Z,9.10
2023-04-16T13:47:21.242Z,8.17
2023-04-16T13:49:49.309Z,8.43
2023-04-16T13:52:18.548Z,8.43
2023-04-16T13:54:46.681Z,7.97
2023-04-16T13:57:14.588Z,8.07
2023-04-16T13:59:42.490Z,8.20
2023-04-16T14:02:11.434Z,8.27
2023-04-16T14:04:39.328Z,7.93
2023-04-16T14:07:07.231Z,8.10
2023-04-16T14:09:36.566Z,8.53
2023-04-16T14:12:04.847Z,8.87
2023-04-16T14:14:32.843Z,7.93
2023-04-16T14:17:00.940Z,8.33
2023-04-16T14:19:28.805Z,8.40
2023-04-16T14:21:56.724Z,7.63
2023-04-16T14:24:24.650Z,7.73
2023-04-16T14:26:53.908Z,8.27
2023-04-16T14:29:21.840Z,7.83
2023-04-16T14:31:50.388Z,8.03
2023-04-16T14:34:18.302Z,7.90
2023-04-16T14:36:46.264Z,8.03
2023-04-16T14:39:14.234Z,8.03
2023-04-16T14:41:42.147Z,8.30
2023-04-16T14:44:11.354Z,8.00
2023-04-16T14:46:40.992Z,8.43
2023-04-16T14:49:11.963Z,8.40
2023-04-16T14:51:40.435Z,8.23
2023-04-16T14:54:08.430Z,8.63
2023-04-16T14:56:36.466Z,7.63
2023-04-16T14:59:04.523Z,7.90
2023-04-16T15:01:34.620Z,8.07
2023-04-16T15:04:03.066Z,8.10
2023-04-16T15:06:32.299Z,7.63
2023-04-16T15:09:00.359Z,7.20
2023-04-16T15:11:28.442Z,7.27
2023-04-16T15:13:56.409Z,7.20
2023-04-16T15:16:24.809Z,8.03
2023-04-16T15:18:54.187Z,8.03
2023-04-16T15:21:22.961Z,7.83
2023-04-16T15:23:51.048Z,7.97
2023-04-16T15:26:19.075Z,7.70
2023-04-16T15:28:47.017Z,7.33
2023-04-16T15:31:15.052Z,7.93
2023-04-16T15:33:42.966Z,7.10
2023-04-16T15:36:12.446Z,8.30
2023-04-16T15:38:40.608Z,7.90
2023-04-16T15:41:09.965Z,7.67
2023-04-16T15:43:37.801Z,7.23
2023-04-16T15:46:06.694Z,7.63
2023-04-16T15:48:34.608Z,7.80
2023-04-16T15:51:02.676Z,7.43
2023-04-16T15:53:31.972Z,8.00
2023-04-16T15:55:59.917Z,7.60
2023-04-16T15:58:27.853Z,6.67
2023-04-16T16:00:55.772Z,6.87
2023-04-16T16:03:23.816Z,7.03
2023-04-16T16:05:51.739Z,7.00
2023-04-16T16:08:19.629Z,7.80
2023-04-16T16:10:48.838Z,6.80
2023-04-16T16:13:18.262Z,7.10
2023-04-16T16:15:46.378Z,7.33
2023-04-16T16:18:14.372Z,7.40
2023-04-16T16:20:42.292Z,7.37
2023-04-16T16:23:10.361Z,7.57
2023-04-16T16:25:38.334Z,7.43
2023-04-16T16:28:07.705Z,7.50
2023-04-16T16:30:36.074Z,7.07
2023-04-16T16:33:04.291Z,6.87
2023-04-16T16:35:32.839Z,7.20
2023-04-16T16:38:01.657Z,7.33
2023-04-16T16:40:30.056Z,7.57
2023-04-16T16:42:57.994Z,7.10
2023-04-16T16:45:28.148Z,6.70
2023-04-16T16:47:56.685Z,7.37
2023-04-16T16:50:24.642Z,7.07
2023-04-16T16:52:52.598Z,7.37
2023-04-16T16:55:20.983Z,7.10
2023-04-16T16:57:49.314Z,6.90
2023-04-16T17:00:20.168Z,6.43
2023-04-16T17:02:51.149Z,7.07
2023-04-16T17:05:19.901Z,7.30
2023-04-16T17:07:47.789Z,7.90
2023-04-16T17:10:20.366Z,6.80
2023-04-16T17:12:48.548Z,7.50
2023-04-16T17:15:17.977Z,7.20
2023-04-16T17:17:47.165Z,7.53
2023-04-16T17:20:16.383Z,7.73
2023-04-16T17:22:44.336Z,7.97
2023-04-16T17:25:12.318Z,8.27
2023-04-16T17:27:40.255Z,8.47
2023-04-16T17:30:09.444Z,9.17
2023-04-16T17:32:37.397Z,10.00
2023-04-16T17:35:06.911Z,10.77
2023-04-16T17:37:36.381Z,10.73
2023-04-16T17:40:07.552Z,10.90
2023-04-16T17:42:35.738Z,11.23
2023-04-16T17:45:04.228Z,9.97
2023-04-16T17:47:32.126Z,10.90
2023-04-16T17:50:00.046Z,10.77
2023-04-16T17:52:28.020Z,11.13
2023-04-16T17:55:01.217Z,10.63
2023-04-16T17:57:29.331Z,9.97
2023-04-16T17:59:57.349Z,10.47
2023-04-16T18:02:25.518Z,8.67
2023-04-16T18:04:53.851Z,9.67
2023-04-16T18:07:21.972Z,10.03
2023-04-16T18:09:49.917Z,9.67
2023-04-16T18:12:19.223Z,9.83
2023-04-16T18:14:47.194Z,10.13
2023-04-16T18:17:15.555Z,10.30
2023-04-16T18:19:44.766Z,10.50
2023-04-16T18:22:13.315Z,9.07
2023-04-16T18:24:41.363Z,10.07
2023-04-16T18:27:09.395Z,9.93
2023-04-16T18:29:39.874Z,10.10
2023-04-16T18:32:11.795Z,10.57
2023-04-16T18:34:40.583Z,10.23
2023-04-16T18:37:08.759Z,9.73
2023-04-16T18:39:36.815Z,10.70
2023-04-16T18:42:05.211Z,9.90
2023-04-16T18:44:33.322Z,10.23
2023-04-16T18:47:02.646Z,9.87
2023-04-16T18:49:30.573Z,9.83
2023-04-16T18:51:58.509Z,9.97
2023-04-16T18:54:27.585Z,9.90
2023-04-16T18:56:56.859Z,11.27
2023-04-16T18:59:25.860Z,11.00
2023-04-16T19:01:53.936Z,10.83
2023-04-16T19:04:23.197Z,11.17
2023-04-16T19:06:51.225Z,11.17
2023-04-16T19:09:20.258Z,11.57
2023-04-16T19:11:50.473Z,10.80
2023-04-16T19:14:18.553Z,10.37
2023-04-16T19:16:47.490Z,10.97
2023-04-16T19:19:15.799Z,10.13
2023-04-16T19:21:45.203Z,10.50
2023-04-16T19:24:13.173Z,10.10
2023-04-16T19:26:41.220Z,10.97
2023-04-16T19:29:09.270Z,10.67
2023-04-16T19:31:37.549Z,9.97
2023-04-16T19:34:05.693Z,10.37
2023-04-16T19:36:33.593Z,12.27
2023-04-16T19:39:03.758Z,10.47
2023-04-16T19:41:31.651Z,11.43
2023-04-16T19:43:59.862Z,10.77
2023-04-16T19:46:27.927Z,11.03
2023-04-16T19:48:56.676Z,10.97
2023-04-16T19:51:24.587Z,11.03
2023-04-16T19:53:53.719Z,10.93
2023-04-16T19:56:23.102Z,11.07
2023-04-16T19:58:51.099Z,10.37
2023-04-16T20:01:18.978Z,11.40
2023-04-16T20:03:46.880Z,10.87
2023-04-16T20:06:14.860Z,10.33
2023-04-16T20:08:44.430Z,10.73
2023-04-16T20:11:12.943Z,10.63
2023-04-16T20:13:43.122Z,10.87
2023-04-16T20:16:13.496Z,11.57
2023-04-16T20:18:42.578Z,11.23
2023-04-16T20:21:10.918Z,11.80
2023-04-16T20:23:39.178Z,10.37
2023-04-16T20:26:07.578Z,10.83
2023-04-16T20:28:36.108Z,10.57
2023-04-16T20:31:05.541Z,11.03
2023-04-16T20:33:33.475Z,11.57
2023-04-16T20:36:01.452Z,11.10
2023-04-16T20:38:32.290Z,11.70
2023-04-16T20:41:09.895Z,10.67
2023-04-16T20:43:40.690Z,10.87
2023-04-16T20:46:10.887Z,11.40
2023-04-16T20:48:39.744Z,10.83
2023-04-16T20:51:09.399Z,11.17
2023-04-16T20:53:38.048Z,10.57
2023-04-16T20:56:06.815Z,11.17
2023-04-16T20:58:34.798Z,10.30
2023-04-16T21:01:02.698Z,10.83
2023-04-16T21:03:32.164Z,10.33
2023-04-16T21:06:01.699Z,10.97
2023-04-16T21:08:29.774Z,10.63
2023-04-16T21:10:57.769Z,11.23
2023-04-16T21:13:25.665Z,10.60
2023-04-16T21:15:54.003Z,10.93
2023-04-16T21:18:21.932Z,11.00
2023-04-16T21:20:51.201Z,10.30
2023-04-16T21:23:19.129Z,11.13
2023-04-16T21:25:46.956Z,10.37
2023-04-16T21:28:14.874Z,11.17
2023-04-16T21:30:43.235Z,10.50
2023-04-16T21:33:12.759Z,11.10
2023-04-16T21:35:40.666Z,10.27
2023-04-16T21:38:09.958Z,10.50
2023-04-16T21:40:37.917Z,10.70
2023-04-16T21:43:05.809Z,10.30
2023-04-16T21:45:33.726Z,11.03
2023-04-16T21:48:01.718Z,11.10
2023-04-16T21:50:29.654Z,11.07
2023-04-16T21:52:57.611Z,10.23
2023-04-16T21:55:26.885Z,11.00
2023-04-16T21:57:54.753Z,11.33
2023-04-16T22:00:22.814Z,11.03
2023-04-16T22:02:51.518Z,10.60
2023-04-16T22:05:20.040Z,11.70
2023-04-16T22:07:47.939Z,11.57
2023-04-16T22:10:16.045Z,10.90
2023-04-16T22:12:46.477Z,11.43
2023-04-16T22:15:15.054Z,11.43
2023-04-16T22:17:43.146Z,10.87
2023-04-16T22:20:13.008Z,11.53
2023-04-16T22:22:41.388Z,11.50
2023-04-16T22:25:10.252Z,11.07
2023-04-16T22:27:38.419Z,11.67
2023-04-16T22:30:09.374Z,11.37
2023-04-16T22:32:37.357Z,12.33
2023-04-16T22:35:05.897Z,12.30
2023-04-16T22:37:33.906Z,12.43
2023-04-16T22:40:02.019Z,12.83
2023-04-16T22:42:30.025Z,12.27
2023-04-16T22:44:58.114Z,12.57
2023-04-16T22:47:27.501Z,12.67
2023-04-16T22:49:55.353Z,12.23
2023-04-16T22:52:23.255Z,14.73
2023-04-16T22:54:51.137Z,13.00
2023-04-16T22:57:21.157Z,13.87
2023-04-16T22:59:49.140Z,13.27
2023-04-16T23:02:17.423Z,14.73
2023-04-16T23:04:47.646Z,13.57
2023-04-16T23:07:16.203Z,13.80
2023-04-16T23:09:44.245Z,14.13
2023-04-16T23:12:12.136Z,14.53
2023-04-16T23:14:44.598Z,15.83
2023-04-16T23:17:12.786Z,15.30
2023-04-16T23:19:40.753Z,15.77
2023-04-16T23:22:09.986Z,16.57
2023-04-16T23:24:37.904Z,15.60
2023-04-16T23:27:05.773Z,16.73
2023-04-16T23:29:33.732Z,15.33
2023-04-16T23:32:01.717Z,17.37
2023-04-16T23:34:29.603Z,16.13
2023-04-16T23:36:57.555Z,15.87
2023-04-16T23:39:27.164Z,17.43
2023-04-16T23:41:55.098Z,18.17
2023-04-16T23:44:23.014Z,19.30
2023-04-16T23:46:51.017Z,18.50
2023-04-16T23:49:18.968Z,19.47
2023-04-16T23:51:46.980Z,19.37
2023-04-16T23:54:15.031Z,19.30
2023-04-16T23:56:44.445Z,18.80
2023-04-16T23:59:12.894Z,19.77
